sensor_id;sensor_type;location;lat;lon;timestamp;temperature;humidity
49731;DHT22;35622;52.008;5.426;2023-01-08T00:01:42;14.10;80.30
49731;DHT22;35622;52.008;5.426;2023-01-08T00:04:08;13.80;81.00
49731;DHT22;35622;52.008;5.426;2023-01-08T00:06:33;13.80;82.10
49731;DHT22;35622;52.008;5.426;2023-01-08T00:08:59;13.70;80.00
49731;DHT22;35622;52.008;5.426;2023-01-08T00:11:24;13.70;78.90
49731;DHT22;35622;52.008;5.426;2023-01-08T00:13:50;13.50;77.40
49731;DHT22;35622;52.008;5.426;2023-01-08T00:16:17;13.60;77.30
49731;DHT22;35622;52.008;5.426;2023-01-08T00:18:44;13.20;79.10
49731;DHT22;35622;52.008;5.426;2023-01-08T00:21:09;12.50;78.70
49731;DHT22;35622;52.008;5.426;2023-01-08T00:23:35;12.80;80.30
49731;DHT22;35622;52.008;5.426;2023-01-08T00:26:03;13.20;79.80
49731;DHT22;35622;52.008;5.426;2023-01-08T00:28:29;13.20;78.60
49731;DHT22;35622;52.008;5.426;2023-01-08T00:30:55;13.30;77.80
49731;DHT22;35622;52.008;5.426;2023-01-08T00:33:20;13.00;78.60
49731;DHT22;35622;52.008;5.426;2023-01-08T00:35:46;13.00;79.10
49731;DHT22;35622;52.008;5.426;2023-01-08T00:38:12;13.10;80.10
49731;DHT22;35622;52.008;5.426;2023-01-08T00:40:37;13.20;79.60
49731;DHT22;35622;52.008;5.426;2023-01-08T00:43:05;13.00;79.60
49731;DHT22;35622;52.008;5.426;2023-01-08T00:45:31;13.00;81.10
49731;DHT22;35622;52.008;5.426;2023-01-08T00:47:56;13.00;82.10
49731;DHT22;35622;52.008;5.426;2023-01-08T00:50:22;13.20;81.50
49731;DHT22;35622;52.008;5.426;2023-01-08T00:52:48;13.40;81.00
49731;DHT22;35622;52.008;5.426;2023-01-08T00:55:13;13.50;80.80
49731;DHT22;35622;52.008;5.426;2023-01-08T00:57:39;13.40;80.80
49731;DHT22;35622;52.008;5.426;2023-01-08T01:00:06;13.30;81.50
49731;DHT22;35622;52.008;5.426;2023-01-08T01:02:35;13.20;81.80
49731;DHT22;35622;52.008;5.426;2023-01-08T01:05:00;13.30;81.80
49731;DHT22;35622;52.008;5.426;2023-01-08T01:07:26;13.20;82.10
49731;DHT22;35622;52.008;5.426;2023-01-08T01:09:52;13.50;81.60
49731;DHT22;35622;52.008;5.426;2023-01-08T01:12:17;13.40;81.40
49731;DHT22;35622;52.008;5.426;2023-01-08T01:14:43;13.40;81.60
49731;DHT22;35622;52.008;5.426;2023-01-08T01:17:10;13.50;80.80
49731;DHT22;35622;52.008;5.426;2023-01-08T01:19:36;13.30;81.40
49731;DHT22;35622;52.008;5.426;2023-01-08T01:22:02;13.40;81.60
49731;DHT22;35622;52.008;5.426;2023-01-08T01:24:27;13.40;81.50
49731;DHT22;35622;52.008;5.426;2023-01-08T01:26:53;13.60;80.80
49731;DHT22;35622;52.008;5.426;2023-01-08T01:29:21;13.70;80.40
49731;DHT22;35622;52.008;5.426;2023-01-08T01:31:46;13.70;80.30
49731;DHT22;35622;52.008;5.426;2023-01-08T01:34:12;13.50;80.20
49731;DHT22;35622;52.008;5.426;2023-01-08T01:36:37;13.40;81.20
49731;DHT22;35622;52.008;5.426;2023-01-08T01:39:03;13.50;80.60
49731;DHT22;35622;52.008;5.426;2023-01-08T01:41:37;13.40;80.80
49731;DHT22;35622;52.008;5.426;2023-01-08T01:44:38;13.60;80.80
49731;DHT22;35622;52.008;5.426;2023-01-08T01:47:33;13.60;80.30
49731;DHT22;35622;52.008;5.426;2023-01-08T01:50:07;13.50;80.60
49731;DHT22;35622;52.008;5.426;2023-01-08T01:52:38;13.60;80.20
49731;DHT22;35622;52.008;5.426;2023-01-08T01:55:06;13.70;79.40
49731;DHT22;35622;52.008;5.426;2023-01-08T01:57:32;13.60;79.50
49731;DHT22;35622;52.008;5.426;2023-01-08T01:59:59;13.40;79.70
49731;DHT22;35622;52.008;5.426;2023-01-08T02:02:25;13.40;79.50
49731;DHT22;35622;52.008;5.426;2023-01-08T02:04:51;13.50;79.40
49731;DHT22;35622;52.008;5.426;2023-01-08T02:09:55;13.50;78.40
49731;DHT22;35622;52.008;5.426;2023-01-08T02:12:31;13.40;79.30
49731;DHT22;35622;52.008;5.426;2023-01-08T02:15:16;13.40;79.60
49731;DHT22;35622;52.008;5.426;2023-01-08T02:18:08;13.40;79.50
49731;DHT22;35622;52.008;5.426;2023-01-08T02:20:43;13.40;80.00
49731;DHT22;35622;52.008;5.426;2023-01-08T02:23:21;13.40;80.40
49731;DHT22;35622;52.008;5.426;2023-01-08T02:26:18;13.50;80.30
49731;DHT22;35622;52.008;5.426;2023-01-08T02:29:01;13.30;80.40
49731;DHT22;35622;52.008;5.426;2023-01-08T02:31:30;13.30;80.70
49731;DHT22;35622;52.008;5.426;2023-01-08T02:33:56;13.30;81.00
49731;DHT22;35622;52.008;5.426;2023-01-08T02:36:33;13.40;80.90
49731;DHT22;35622;52.008;5.426;2023-01-08T02:44:07;13.20;81.60
49731;DHT22;35622;52.008;5.426;2023-01-08T02:46:39;13.20;82.00
49731;DHT22;35622;52.008;5.426;2023-01-08T02:49:09;13.10;81.80
49731;DHT22;35622;52.008;5.426;2023-01-08T02:51:43;13.20;82.00
49731;DHT22;35622;52.008;5.426;2023-01-08T02:54:15;13.30;81.70
49731;DHT22;35622;52.008;5.426;2023-01-08T02:56:45;13.30;81.50
49731;DHT22;35622;52.008;5.426;2023-01-08T02:59:14;13.40;81.10
49731;DHT22;35622;52.008;5.426;2023-01-08T03:01:41;13.60;80.60
49731;DHT22;35622;52.008;5.426;2023-01-08T03:04:18;13.40;80.70
49731;DHT22;35622;52.008;5.426;2023-01-08T03:06:44;13.50;81.00
49731;DHT22;35622;52.008;5.426;2023-01-08T03:09:10;13.60;80.70
49731;DHT22;35622;52.008;5.426;2023-01-08T03:11:44;13.50;81.00
49731;DHT22;35622;52.008;5.426;2023-01-08T03:14:39;13.50;81.10
49731;DHT22;35622;52.008;5.426;2023-01-08T03:17:30;13.50;80.80
49731;DHT22;35622;52.008;5.426;2023-01-08T03:20:10;13.40;80.70
49731;DHT22;35622;52.008;5.426;2023-01-08T03:22:39;13.30;81.60
49731;DHT22;35622;52.008;5.426;2023-01-08T03:25:06;13.40;82.00
49731;DHT22;35622;52.008;5.426;2023-01-08T03:27:38;13.30;81.20
49731;DHT22;35622;52.008;5.426;2023-01-08T03:30:05;13.40;80.50
49731;DHT22;35622;52.008;5.426;2023-01-08T03:32:32;13.40;80.20
49731;DHT22;35622;52.008;5.426;2023-01-08T03:34:59;13.30;80.30
49731;DHT22;35622;52.008;5.426;2023-01-08T03:37:32;13.30;79.90
49731;DHT22;35622;52.008;5.426;2023-01-08T03:42:31;13.20;80.70
49731;DHT22;35622;52.008;5.426;2023-01-08T03:44:58;13.20;80.60
49731;DHT22;35622;52.008;5.426;2023-01-08T03:47:24;13.20;80.20
49731;DHT22;35622;52.008;5.426;2023-01-08T03:49:52;13.20;80.10
49731;DHT22;35622;52.008;5.426;2023-01-08T03:52:23;13.30;80.10
49731;DHT22;35622;52.008;5.426;2023-01-08T03:54:49;13.20;80.50
49731;DHT22;35622;52.008;5.426;2023-01-08T03:57:15;12.90;80.60
49731;DHT22;35622;52.008;5.426;2023-01-08T03:59:40;13.00;81.20
49731;DHT22;35622;52.008;5.426;2023-01-08T04:02:06;13.10;81.00
49731;DHT22;35622;52.008;5.426;2023-01-08T04:04:31;12.90;81.00
49731;DHT22;35622;52.008;5.426;2023-01-08T04:06:57;12.70;81.60
49731;DHT22;35622;52.008;5.426;2023-01-08T04:09:22;12.70;81.80
49731;DHT22;35622;52.008;5.426;2023-01-08T04:11:48;12.80;81.80
49731;DHT22;35622;52.008;5.426;2023-01-08T04:14:13;12.60;82.10
49731;DHT22;35622;52.008;5.426;2023-01-08T04:16:39;12.70;81.30
49731;DHT22;35622;52.008;5.426;2023-01-08T04:19:04;12.70;81.60
49731;DHT22;35622;52.008;5.426;2023-01-08T04:21:30;12.70;81.80
49731;DHT22;35622;52.008;5.426;2023-01-08T04:23:56;12.80;81.40
49731;DHT22;35622;52.008;5.426;2023-01-08T04:26:21;12.70;81.70
49731;DHT22;35622;52.008;5.426;2023-01-08T04:28:47;12.60;81.50
49731;DHT22;35622;52.008;5.426;2023-01-08T04:31:12;12.80;81.20
49731;DHT22;35622;52.008;5.426;2023-01-08T04:33:38;12.70;80.80
49731;DHT22;35622;52.008;5.426;2023-01-08T04:36:04;12.80;80.70
49731;DHT22;35622;52.008;5.426;2023-01-08T04:38:30;12.70;80.70
49731;DHT22;35622;52.008;5.426;2023-01-08T04:40:59;12.60;80.90
49731;DHT22;35622;52.008;5.426;2023-01-08T04:43:25;12.70;80.70
49731;DHT22;35622;52.008;5.426;2023-01-08T04:45:51;12.70;80.70
49731;DHT22;35622;52.008;5.426;2023-01-08T04:48:17;12.60;81.00
49731;DHT22;35622;52.008;5.426;2023-01-08T04:50:42;12.60;80.80
49731;DHT22;35622;52.008;5.426;2023-01-08T04:53:08;12.70;80.80
49731;DHT22;35622;52.008;5.426;2023-01-08T04:55:34;12.50;81.00
49731;DHT22;35622;52.008;5.426;2023-01-08T04:57:59;12.50;81.00
49731;DHT22;35622;52.008;5.426;2023-01-08T05:00:25;12.80;80.30
49731;DHT22;35622;52.008;5.426;2023-01-08T05:02:50;12.60;80.30
49731;DHT22;35622;52.008;5.426;2023-01-08T05:05:16;12.60;80.50
49731;DHT22;35622;52.008;5.426;2023-01-08T05:07:41;12.60;80.40
49731;DHT22;35622;52.008;5.426;2023-01-08T05:10:07;12.50;80.50
49731;DHT22;35622;52.008;5.426;2023-01-08T05:12:33;12.60;80.40
49731;DHT22;35622;52.008;5.426;2023-01-08T05:14:58;12.50;81.00
49731;DHT22;35622;52.008;5.426;2023-01-08T05:17:24;12.60;80.10
49731;DHT22;35622;52.008;5.426;2023-01-08T05:19:49;12.50;80.20
49731;DHT22;35622;52.008;5.426;2023-01-08T05:22:15;12.40;80.90
49731;DHT22;35622;52.008;5.426;2023-01-08T05:24:41;12.30;80.80
49731;DHT22;35622;52.008;5.426;2023-01-08T05:27:06;12.40;80.80
49731;DHT22;35622;52.008;5.426;2023-01-08T05:29:32;12.50;80.60
49731;DHT22;35622;52.008;5.426;2023-01-08T05:31:57;12.30;80.50
49731;DHT22;35622;52.008;5.426;2023-01-08T05:34:23;12.40;80.20
49731;DHT22;35622;52.008;5.426;2023-01-08T05:36:48;12.30;80.30
49731;DHT22;35622;52.008;5.426;2023-01-08T05:39:14;12.30;80.30
49731;DHT22;35622;52.008;5.426;2023-01-08T05:41:40;12.30;80.30
49731;DHT22;35622;52.008;5.426;2023-01-08T05:44:05;12.30;80.30
49731;DHT22;35622;52.008;5.426;2023-01-08T05:46:31;12.30;80.30
49731;DHT22;35622;52.008;5.426;2023-01-08T05:48:56;12.10;80.60
49731;DHT22;35622;52.008;5.426;2023-01-08T05:51:22;12.10;80.70
49731;DHT22;35622;52.008;5.426;2023-01-08T05:53:47;12.20;80.60
49731;DHT22;35622;52.008;5.426;2023-01-08T05:56:13;12.10;80.00
49731;DHT22;35622;52.008;5.426;2023-01-08T05:58:39;12.00;79.60
49731;DHT22;35622;52.008;5.426;2023-01-08T06:01:08;12.00;79.80
49731;DHT22;35622;52.008;5.426;2023-01-08T06:03:34;11.90;79.10
49731;DHT22;35622;52.008;5.426;2023-01-08T06:06:01;11.90;78.70
49731;DHT22;35622;52.008;5.426;2023-01-08T06:08:28;11.70;79.50
49731;DHT22;35622;52.008;5.426;2023-01-08T06:10:54;11.60;79.50
49731;DHT22;35622;52.008;5.426;2023-01-08T06:13:22;11.40;79.20
49731;DHT22;35622;52.008;5.426;2023-01-08T06:15:48;11.30;79.10
49731;DHT22;35622;52.008;5.426;2023-01-08T06:18:13;11.20;78.80
49731;DHT22;35622;52.008;5.426;2023-01-08T06:20:39;11.10;78.70
49731;DHT22;35622;52.008;5.426;2023-01-08T06:23:04;11.10;78.70
49731;DHT22;35622;52.008;5.426;2023-01-08T06:25:30;11.00;78.60
49731;DHT22;35622;52.008;5.426;2023-01-08T06:27:55;11.00;78.40
49731;DHT22;35622;52.008;5.426;2023-01-08T06:30:21;10.90;78.40
49731;DHT22;35622;52.008;5.426;2023-01-08T06:32:46;10.80;78.60
49731;DHT22;35622;52.008;5.426;2023-01-08T06:35:12;10.60;78.60
49731;DHT22;35622;52.008;5.426;2023-01-08T06:37:38;10.50;78.60
49731;DHT22;35622;52.008;5.426;2023-01-08T06:40:03;10.50;78.40
49731;DHT22;35622;52.008;5.426;2023-01-08T06:42:29;10.30;78.50
49731;DHT22;35622;52.008;5.426;2023-01-08T06:44:55;10.30;78.70
49731;DHT22;35622;52.008;5.426;2023-01-08T06:47:20;10.20;79.40
49731;DHT22;35622;52.008;5.426;2023-01-08T06:49:46;10.20;79.80
49731;DHT22;35622;52.008;5.426;2023-01-08T06:52:12;10.10;79.60
49731;DHT22;35622;52.008;5.426;2023-01-08T06:54:37;10.10;79.80
49731;DHT22;35622;52.008;5.426;2023-01-08T06:57:03;10.00;79.50
49731;DHT22;35622;52.008;5.426;2023-01-08T06:59:28;10.20;79.30
49731;DHT22;35622;52.008;5.426;2023-01-08T07:01:54;10.00;79.10
49731;DHT22;35622;52.008;5.426;2023-01-08T07:04:20;10.10;79.40
49731;DHT22;35622;52.008;5.426;2023-01-08T07:06:45;10.00;79.70
49731;DHT22;35622;52.008;5.426;2023-01-08T07:09:12;9.80;79.70
49731;DHT22;35622;52.008;5.426;2023-01-08T07:11:40;9.80;79.60
49731;DHT22;35622;52.008;5.426;2023-01-08T07:14:05;9.70;79.80
49731;DHT22;35622;52.008;5.426;2023-01-08T07:16:31;9.60;80.20
49731;DHT22;35622;52.008;5.426;2023-01-08T07:18:57;9.60;80.30
49731;DHT22;35622;52.008;5.426;2023-01-08T07:21:22;9.50;79.90
49731;DHT22;35622;52.008;5.426;2023-01-08T07:23:49;9.70;80.60
49731;DHT22;35622;52.008;5.426;2023-01-08T07:26:14;9.60;80.40
49731;DHT22;35622;52.008;5.426;2023-01-08T07:28:41;9.60;80.70
49731;DHT22;35622;52.008;5.426;2023-01-08T07:31:06;9.60;80.60
49731;DHT22;35622;52.008;5.426;2023-01-08T07:33:32;9.60;81.00
49731;DHT22;35622;52.008;5.426;2023-01-08T07:35:58;9.60;81.10
49731;DHT22;35622;52.008;5.426;2023-01-08T07:38:24;9.60;81.50
49731;DHT22;35622;52.008;5.426;2023-01-08T07:40:49;9.60;81.50
49731;DHT22;35622;52.008;5.426;2023-01-08T07:43:15;9.50;81.00
49731;DHT22;35622;52.008;5.426;2023-01-08T07:45:40;9.50;81.10
49731;DHT22;35622;52.008;5.426;2023-01-08T07:48:07;9.50;81.20
49731;DHT22;35622;52.008;5.426;2023-01-08T07:50:36;9.60;81.10
49731;DHT22;35622;52.008;5.426;2023-01-08T07:53:02;9.60;80.90
49731;DHT22;35622;52.008;5.426;2023-01-08T07:55:29;9.50;80.70
49731;DHT22;35622;52.008;5.426;2023-01-08T07:57:55;9.50;80.80
49731;DHT22;35622;52.008;5.426;2023-01-08T08:00:20;9.40;81.20
49731;DHT22;35622;52.008;5.426;2023-01-08T08:02:46;9.60;81.20
49731;DHT22;35622;52.008;5.426;2023-01-08T08:05:12;9.50;80.90
49731;DHT22;35622;52.008;5.426;2023-01-08T08:07:38;9.30;81.50
49731;DHT22;35622;52.008;5.426;2023-01-08T08:10:04;9.30;81.70
49731;DHT22;35622;52.008;5.426;2023-01-08T08:12:30;9.40;81.30
49731;DHT22;35622;52.008;5.426;2023-01-08T08:14:56;9.50;81.10
49731;DHT22;35622;52.008;5.426;2023-01-08T08:17:22;9.50;81.10
49731;DHT22;35622;52.008;5.426;2023-01-08T08:19:47;9.50;81.60
49731;DHT22;35622;52.008;5.426;2023-01-08T08:22:13;9.40;81.60
49731;DHT22;35622;52.008;5.426;2023-01-08T08:24:39;9.30;82.50
49731;DHT22;35622;52.008;5.426;2023-01-08T08:27:05;9.40;82.30
49731;DHT22;35622;52.008;5.426;2023-01-08T08:29:30;9.60;81.70
49731;DHT22;35622;52.008;5.426;2023-01-08T08:31:56;9.60;82.00
49731;DHT22;35622;52.008;5.426;2023-01-08T08:34:22;9.70;82.20
49731;DHT22;35622;52.008;5.426;2023-01-08T08:36:48;9.70;82.30
49731;DHT22;35622;52.008;5.426;2023-01-08T08:39:14;9.70;81.90
49731;DHT22;35622;52.008;5.426;2023-01-08T08:41:40;9.80;81.60
49731;DHT22;35622;52.008;5.426;2023-01-08T08:44:07;9.70;81.70
49731;DHT22;35622;52.008;5.426;2023-01-08T08:46:32;9.70;82.20
49731;DHT22;35622;52.008;5.426;2023-01-08T08:48:59;9.70;81.80
49731;DHT22;35622;52.008;5.426;2023-01-08T08:51:25;9.80;83.00
49731;DHT22;35622;52.008;5.426;2023-01-08T08:53:50;9.80;82.00
49731;DHT22;35622;52.008;5.426;2023-01-08T08:56:16;9.80;82.10
49731;DHT22;35622;52.008;5.426;2023-01-08T08:58:42;9.60;82.10
49731;DHT22;35622;52.008;5.426;2023-01-08T09:01:09;9.70;82.40
49731;DHT22;35622;52.008;5.426;2023-01-08T09:03:35;9.70;82.30
49731;DHT22;35622;52.008;5.426;2023-01-08T09:06:00;9.80;82.20
49731;DHT22;35622;52.008;5.426;2023-01-08T09:08:26;9.90;82.00
49731;DHT22;35622;52.008;5.426;2023-01-08T09:10:51;9.90;81.80
49731;DHT22;35622;52.008;5.426;2023-01-08T09:13:17;9.80;81.60
49731;DHT22;35622;52.008;5.426;2023-01-08T09:15:43;10.00;81.70
49731;DHT22;35622;52.008;5.426;2023-01-08T09:18:09;10.00;82.20
49731;DHT22;35622;52.008;5.426;2023-01-08T09:20:34;10.10;82.20
49731;DHT22;35622;52.008;5.426;2023-01-08T09:23:00;10.20;81.80
49731;DHT22;35622;52.008;5.426;2023-01-08T09:25:27;10.20;82.40
49731;DHT22;35622;52.008;5.426;2023-01-08T09:28:01;10.20;82.30
49731;DHT22;35622;52.008;5.426;2023-01-08T09:30:27;10.30;83.20
49731;DHT22;35622;52.008;5.426;2023-01-08T09:33:00;10.30;83.40
49731;DHT22;35622;52.008;5.426;2023-01-08T09:35:26;10.40;83.20
49731;DHT22;35622;52.008;5.426;2023-01-08T09:37:53;10.50;83.40
49731;DHT22;35622;52.008;5.426;2023-01-08T09:40:21;10.60;83.30
49731;DHT22;35622;52.008;5.426;2023-01-08T09:42:53;10.70;83.90
49731;DHT22;35622;52.008;5.426;2023-01-08T09:45:30;10.90;83.30
49731;DHT22;35622;52.008;5.426;2023-01-08T09:48:00;11.00;83.10
49731;DHT22;35622;52.008;5.426;2023-01-08T09:50:27;11.10;82.60
49731;DHT22;35622;52.008;5.426;2023-01-08T09:52:54;11.10;81.70
49731;DHT22;35622;52.008;5.426;2023-01-08T09:55:19;11.00;81.80
49731;DHT22;35622;52.008;5.426;2023-01-08T09:57:46;11.00;82.60
49731;DHT22;35622;52.008;5.426;2023-01-08T10:00:18;11.10;82.60
49731;DHT22;35622;52.008;5.426;2023-01-08T10:02:45;11.30;82.80
49731;DHT22;35622;52.008;5.426;2023-01-08T10:05:16;11.40;82.30
49731;DHT22;35622;52.008;5.426;2023-01-08T10:07:43;11.60;82.40
49731;DHT22;35622;52.008;5.426;2023-01-08T10:10:25;11.70;81.90
49731;DHT22;35622;52.008;5.426;2023-01-08T10:12:52;11.80;82.20
49731;DHT22;35622;52.008;5.426;2023-01-08T10:15:20;12.00;80.60
49731;DHT22;35622;52.008;5.426;2023-01-08T10:18:01;12.00;80.50
49731;DHT22;35622;52.008;5.426;2023-01-08T10:20:28;12.00;82.20
49731;DHT22;35622;52.008;5.426;2023-01-08T10:22:54;12.70;83.70
49731;DHT22;35622;52.008;5.426;2023-01-08T10:25:23;13.40;78.90
49731;DHT22;35622;52.008;5.426;2023-01-08T10:28:00;14.00;74.50
49731;DHT22;35622;52.008;5.426;2023-01-08T10:30:35;14.50;71.40
49731;DHT22;35622;52.008;5.426;2023-01-08T10:33:10;14.90;69.40
49731;DHT22;35622;52.008;5.426;2023-01-08T10:35:41;15.20;68.70
49731;DHT22;35622;52.008;5.426;2023-01-08T10:38:33;15.60;67.40
49731;DHT22;35622;52.008;5.426;2023-01-08T10:41:04;15.70;66.10
49731;DHT22;35622;52.008;5.426;2023-01-08T10:43:33;15.90;64.50
49731;DHT22;35622;52.008;5.426;2023-01-08T10:46:07;15.70;63.70
49731;DHT22;35622;52.008;5.426;2023-01-08T10:48:39;15.90;65.20
49731;DHT22;35622;52.008;5.426;2023-01-08T10:51:17;16.30;64.80
49731;DHT22;35622;52.008;5.426;2023-01-08T10:53:44;16.60;63.00
49731;DHT22;35622;52.008;5.426;2023-01-08T10:56:19;16.70;60.90
49731;DHT22;35622;52.008;5.426;2023-01-08T10:58:46;16.60;60.60
49731;DHT22;35622;52.008;5.426;2023-01-08T11:03:48;16.60;61.30
49731;DHT22;35622;52.008;5.426;2023-01-08T11:06:22;16.50;60.00
49731;DHT22;35622;52.008;5.426;2023-01-08T11:08:59;16.00;61.20
49731;DHT22;35622;52.008;5.426;2023-01-08T11:11:36;16.00;63.20
49731;DHT22;35622;52.008;5.426;2023-01-08T11:14:29;16.20;62.50
49731;DHT22;35622;52.008;5.426;2023-01-08T11:16:56;16.20;61.00
49731;DHT22;35622;52.008;5.426;2023-01-08T11:19:28;16.10;62.10
49731;DHT22;35622;52.008;5.426;2023-01-08T11:22:18;16.00;62.00
49731;DHT22;35622;52.008;5.426;2023-01-08T11:24:45;15.80;62.10
49731;DHT22;35622;52.008;5.426;2023-01-08T11:27:34;15.70;63.30
49731;DHT22;35622;52.008;5.426;2023-01-08T11:32:44;15.30;65.00
49731;DHT22;35622;52.008;5.426;2023-01-08T11:35:16;15.50;65.60
49731;DHT22;35622;52.008;5.426;2023-01-08T11:37:50;15.60;63.40
49731;DHT22;35622;52.008;5.426;2023-01-08T11:43:03;15.50;63.60
49731;DHT22;35622;52.008;5.426;2023-01-08T11:46:05;15.40;64.60
49731;DHT22;35622;52.008;5.426;2023-01-08T11:48:49;15.40;63.50
49731;DHT22;35622;52.008;5.426;2023-01-08T11:57:07;14.30;67.40
49731;DHT22;35622;52.008;5.426;2023-01-08T12:08:20;13.90;69.30
49731;DHT22;35622;52.008;5.426;2023-01-08T12:11:05;13.90;69.10
49731;DHT22;35622;52.008;5.426;2023-01-08T12:16:49;13.70;69.70
49731;DHT22;35622;52.008;5.426;2023-01-08T12:19:30;13.80;71.20
49731;DHT22;35622;52.008;5.426;2023-01-08T12:22:15;14.10;70.10
49731;DHT22;35622;52.008;5.426;2023-01-08T12:33:43;14.40;67.90
49731;DHT22;35622;52.008;5.426;2023-01-08T12:35:53;14.70;66.00
49731;DHT22;35622;52.008;5.426;2023-01-08T12:38:26;14.40;67.90
49731;DHT22;35622;52.008;5.426;2023-01-08T12:41:14;14.50;67.30
49731;DHT22;35622;52.008;5.426;2023-01-08T12:43:54;14.50;67.40
49731;DHT22;35622;52.008;5.426;2023-01-08T12:46:22;14.70;67.70
49731;DHT22;35622;52.008;5.426;2023-01-08T12:48:50;14.70;68.20
49731;DHT22;35622;52.008;5.426;2023-01-08T12:51:40;14.90;67.40
49731;DHT22;35622;52.008;5.426;2023-01-08T12:54:23;14.90;67.70
49731;DHT22;35622;52.008;5.426;2023-01-08T12:57:04;14.90;67.20
49731;DHT22;35622;52.008;5.426;2023-01-08T12:59:43;15.10;66.60
49731;DHT22;35622;52.008;5.426;2023-01-08T13:04:56;14.80;65.60
49731;DHT22;35622;52.008;5.426;2023-01-08T13:07:26;14.60;65.60
49731;DHT22;35622;52.008;5.426;2023-01-08T13:10:53;14.70;66.00
49731;DHT22;35622;52.008;5.426;2023-01-08T13:13:34;14.70;66.20
49731;DHT22;35622;52.008;5.426;2023-01-08T13:18:36;14.60;65.60
49731;DHT22;35622;52.008;5.426;2023-01-08T13:21:02;14.70;65.50
49731;DHT22;35622;52.008;5.426;2023-01-08T13:23:33;14.70;65.90
49731;DHT22;35622;52.008;5.426;2023-01-08T13:26:01;14.70;65.80
49731;DHT22;35622;52.008;5.426;2023-01-08T13:28:44;14.50;63.50
49731;DHT22;35622;52.008;5.426;2023-01-08T13:31:26;14.40;65.40
49731;DHT22;35622;52.008;5.426;2023-01-08T13:33:52;14.40;66.20
49731;DHT22;35622;52.008;5.426;2023-01-08T13:36:26;14.30;65.20
49731;DHT22;35622;52.008;5.426;2023-01-08T13:39:21;14.20;65.00
49731;DHT22;35622;52.008;5.426;2023-01-08T13:44:38;13.70;66.30
49731;DHT22;35622;52.008;5.426;2023-01-08T13:49:47;13.60;67.80
49731;DHT22;35622;52.008;5.426;2023-01-08T13:52:44;13.40;67.80
49731;DHT22;35622;52.008;5.426;2023-01-08T13:55:20;13.40;69.70
49731;DHT22;35622;52.008;5.426;2023-01-08T13:58:17;13.30;68.70
49731;DHT22;35622;52.008;5.426;2023-01-08T14:00:44;13.20;68.80
49731;DHT22;35622;52.008;5.426;2023-01-08T14:03:34;13.10;68.90
49731;DHT22;35622;52.008;5.426;2023-01-08T14:08:54;13.00;69.30
49731;DHT22;35622;52.008;5.426;2023-01-08T14:11:24;12.90;70.40
49731;DHT22;35622;52.008;5.426;2023-01-08T14:13:52;12.90;70.00
49731;DHT22;35622;52.008;5.426;2023-01-08T14:16:18;13.00;70.50
49731;DHT22;35622;52.008;5.426;2023-01-08T14:18:44;13.20;69.60
49731;DHT22;35622;52.008;5.426;2023-01-08T14:21:11;13.20;69.50
49731;DHT22;35622;52.008;5.426;2023-01-08T14:23:40;13.20;69.40
49731;DHT22;35622;52.008;5.426;2023-01-08T14:26:07;13.50;68.30
49731;DHT22;35622;52.008;5.426;2023-01-08T14:28:50;13.40;68.80
49731;DHT22;35622;52.008;5.426;2023-01-08T14:31:20;13.50;68.20
49731;DHT22;35622;52.008;5.426;2023-01-08T14:33:47;13.40;69.00
49731;DHT22;35622;52.008;5.426;2023-01-08T14:36:13;13.50;68.50
49731;DHT22;35622;52.008;5.426;2023-01-08T14:38:39;13.50;68.20
49731;DHT22;35622;52.008;5.426;2023-01-08T14:41:12;13.70;67.90
49731;DHT22;35622;52.008;5.426;2023-01-08T14:43:41;13.70;67.30
49731;DHT22;35622;52.008;5.426;2023-01-08T14:46:27;13.30;66.60
49731;DHT22;35622;52.008;5.426;2023-01-08T14:48:54;13.40;66.10
49731;DHT22;35622;52.008;5.426;2023-01-08T14:51:22;13.30;67.10
49731;DHT22;35622;52.008;5.426;2023-01-08T14:54:01;13.20;68.10
49731;DHT22;35622;52.008;5.426;2023-01-08T14:56:33;13.30;67.80
49731;DHT22;35622;52.008;5.426;2023-01-08T14:58:59;13.20;68.00
49731;DHT22;35622;52.008;5.426;2023-01-08T15:01:31;13.20;68.20
49731;DHT22;35622;52.008;5.426;2023-01-08T15:04:17;13.20;68.40
49731;DHT22;35622;52.008;5.426;2023-01-08T15:06:44;13.00;67.40
49731;DHT22;35622;52.008;5.426;2023-01-08T15:09:32;12.90;68.10
49731;DHT22;35622;52.008;5.426;2023-01-08T15:12:01;12.80;68.30
49731;DHT22;35622;52.008;5.426;2023-01-08T15:14:28;12.60;68.60
49731;DHT22;35622;52.008;5.426;2023-01-08T15:16:56;12.60;68.80
49731;DHT22;35622;52.008;5.426;2023-01-08T15:19:26;12.50;69.20
49731;DHT22;35622;52.008;5.426;2023-01-08T15:21:54;12.50;69.20
49731;DHT22;35622;52.008;5.426;2023-01-08T15:24:36;12.40;69.30
49731;DHT22;35622;52.008;5.426;2023-01-08T15:27:05;12.10;69.80
49731;DHT22;35622;52.008;5.426;2023-01-08T15:29:49;12.10;70.60
49731;DHT22;35622;52.008;5.426;2023-01-08T15:34:42;11.80;71.50
49731;DHT22;35622;52.008;5.426;2023-01-08T15:37:07;11.90;71.50
49731;DHT22;35622;52.008;5.426;2023-01-08T15:39:33;11.90;71.10
49731;DHT22;35622;52.008;5.426;2023-01-08T15:42:29;11.80;71.50
49731;DHT22;35622;52.008;5.426;2023-01-08T15:45:19;11.70;71.90
49731;DHT22;35622;52.008;5.426;2023-01-08T15:47:45;11.70;73.10
49731;DHT22;35622;52.008;5.426;2023-01-08T15:50:11;11.70;71.90
49731;DHT22;35622;52.008;5.426;2023-01-08T15:52:39;11.40;72.20
49731;DHT22;35622;52.008;5.426;2023-01-08T15:55:09;11.30;72.70
49731;DHT22;35622;52.008;5.426;2023-01-08T15:57:38;11.30;72.70
49731;DHT22;35622;52.008;5.426;2023-01-08T16:00:05;11.30;73.00
49731;DHT22;35622;52.008;5.426;2023-01-08T16:02:42;11.20;72.90
49731;DHT22;35622;52.008;5.426;2023-01-08T16:05:08;11.10;73.20
49731;DHT22;35622;52.008;5.426;2023-01-08T16:07:34;11.10;73.30
49731;DHT22;35622;52.008;5.426;2023-01-08T16:09:59;11.00;73.10
49731;DHT22;35622;52.008;5.426;2023-01-08T16:12:25;10.90;74.00
49731;DHT22;35622;52.008;5.426;2023-01-08T16:14:50;10.90;74.10
49731;DHT22;35622;52.008;5.426;2023-01-08T16:17:16;11.00;73.70
49731;DHT22;35622;52.008;5.426;2023-01-08T16:19:41;10.90;74.00
49731;DHT22;35622;52.008;5.426;2023-01-08T16:22:07;10.80;74.10
49731;DHT22;35622;52.008;5.426;2023-01-08T16:24:33;10.80;74.20
49731;DHT22;35622;52.008;5.426;2023-01-08T16:26:59;10.90;74.20
49731;DHT22;35622;52.008;5.426;2023-01-08T16:29:25;10.80;74.20
49731;DHT22;35622;52.008;5.426;2023-01-08T16:31:52;10.60;74.70
49731;DHT22;35622;52.008;5.426;2023-01-08T16:34:18;10.50;75.10
49731;DHT22;35622;52.008;5.426;2023-01-08T16:36:43;10.50;75.20
49731;DHT22;35622;52.008;5.426;2023-01-08T16:39:09;10.60;75.10
49731;DHT22;35622;52.008;5.426;2023-01-08T16:41:35;10.60;74.80
49731;DHT22;35622;52.008;5.426;2023-01-08T16:44:01;10.50;74.90
49731;DHT22;35622;52.008;5.426;2023-01-08T16:46:27;10.50;74.70
49731;DHT22;35622;52.008;5.426;2023-01-08T16:48:54;10.40;75.40